createdAt,value
2022-12-05T00:02:33.457Z,98007.03
2022-12-05T00:05:21.548Z,98012.31
2022-12-05T00:08:09.396Z,98010.50
2022-12-05T00:10:57.101Z,98022.03
2022-12-05T00:13:45.947Z,98018.41
2022-12-05T00:16:34.780Z,98032.56
2022-12-05T00:19:24.166Z,98028.25
2022-12-05T00:22:11.992Z,98037.00
2022-12-05T00:25:01.167Z,98034.47
2022-12-05T00:27:49.005Z,98030.88
2022-12-05T00:30:37.057Z,98034.47
2022-12-05T00:33:25.029Z,98037.97
2022-12-05T00:36:17.937Z,98037.84
2022-12-05T00:39:09.559Z,98046.69
2022-12-05T00:41:57.558Z,98046.69
2022-12-05T00:44:45.355Z,98062.50
2022-12-05T00:47:35.480Z,98058.06
2022-12-05T00:50:23.590Z,98055.44
2022-12-05T00:53:16.070Z,98058.06
2022-12-05T00:56:05.067Z,98059.72
2022-12-05T00:58:54.674Z,98059.72
2022-12-05T01:01:44.501Z,98068.59
2022-12-05T01:04:32.563Z,98065.84
2022-12-05T01:07:20.783Z,98061.97
2022-12-05T01:10:12.066Z,98067.50
2022-12-05T01:13:02.174Z,98078.03
2022-12-05T01:15:50.561Z,98081.66
2022-12-05T01:18:38.216Z,98089.69
2022-12-05T01:21:26.652Z,98100.81
2022-12-05T01:24:14.904Z,98096.50
2022-12-05T01:27:04.534Z,98093.03
2022-12-05T01:29:52.795Z,98102.72
2022-12-05T01:32:40.589Z,98095.66
2022-12-05T01:35:28.441Z,98098.31
2022-12-05T01:38:17.603Z,98106.09
2022-12-05T01:41:07.535Z,98110.50
2022-12-05T01:44:02.072Z,98109.91
2022-12-05T01:46:51.938Z,98120.44
2022-12-05T01:49:43.446Z,98116.16
2022-12-05T01:52:33.153Z,98118.41
2022-12-05T01:55:21.578Z,98134.22
2022-12-05T01:58:11.066Z,98141.03
2022-12-05T02:01:00.725Z,98142.97
2022-12-05T02:03:51.660Z,98151.56
2022-12-05T02:06:39.940Z,98156.16
2022-12-05T02:09:28.339Z,98149.56
2022-12-05T02:12:16.316Z,98148.50
2022-12-05T02:15:19.747Z,98148.25
2022-12-05T02:18:22.450Z,98152.91
2022-12-05T02:21:30.118Z,98148.50
2022-12-05T02:24:45.724Z,98148.75
2022-12-05T02:27:58.332Z,98158.44
2022-12-05T02:30:53.938Z,98157.22
2022-12-05T02:33:48.547Z,98169.81
2022-12-05T02:36:44.774Z,98165.25
2022-12-05T02:39:42.301Z,98176.50
2022-12-05T02:42:33.985Z,98174.84
2022-12-05T02:45:27.275Z,98173.16
2022-12-05T02:48:18.306Z,98188.03
2022-12-05T02:51:08.541Z,98186.44
2022-12-05T02:53:59.444Z,98198.09
2022-12-05T02:56:49.467Z,98191.03
2022-12-05T02:59:38.291Z,98189.22
2022-12-05T03:02:32.267Z,98198.94
2022-12-05T03:05:28.571Z,98201.56
2022-12-05T03:08:22.112Z,98213.28
2022-12-05T03:11:10.575Z,98213.56
2022-12-05T03:14:02.300Z,98217.88
2022-12-05T03:16:52.897Z,98219.22
2022-12-05T03:19:48.176Z,98217.50
2022-12-05T03:22:44.982Z,98218.25
2022-12-05T03:25:41.336Z,98214.63
2022-12-05T03:28:38.054Z,98210.34
2022-12-05T03:31:34.759Z,98206.84
2022-12-05T03:34:30.870Z,98214.06
2022-12-05T03:37:26.310Z,98203.53
2022-12-05T03:40:27.491Z,98197.28
2022-12-05T03:43:23.501Z,98178.00
2022-12-05T03:46:17.820Z,98181.59
2022-12-05T03:49:14.481Z,98186.03
2022-12-05T03:52:09.413Z,98197.66
2022-12-05T03:54:59.227Z,98206.53
2022-12-05T03:57:55.632Z,98214.44
2022-12-05T04:00:47.561Z,98213.72
2022-12-05T04:03:41.776Z,98227.00
2022-12-05T04:06:34.408Z,98230.59
2022-12-05T04:09:27.633Z,98243.53
2022-12-05T04:12:20.573Z,98245.09
2022-12-05T04:15:18.383Z,98249.41
2022-12-05T04:18:06.344Z,98255.16
2022-12-05T04:21:13.976Z,98270.94
2022-12-05T04:24:19.405Z,98266.66
2022-12-05T04:27:24.059Z,98263.06
2022-12-05T04:30:17.239Z,98279.81
2022-12-05T04:33:09.568Z,98275.16
2022-12-05T04:36:03.955Z,98281.50
2022-12-05T04:38:56.291Z,98281.88
2022-12-05T04:41:50.555Z,98281.75
2022-12-05T04:44:43.129Z,98286.03
2022-12-05T04:47:37.299Z,98289.41
2022-12-05T04:50:28.921Z,98291.19
2022-12-05T04:53:19.511Z,98297.66
2022-12-05T04:56:08.536Z,98295.38
2022-12-05T04:58:56.754Z,98290.34
2022-12-05T05:01:49.658Z,98293.34
2022-12-05T05:04:42.236Z,98302.31
2022-12-05T05:07:31.419Z,98297.06
2022-12-05T05:10:25.977Z,98304.94
2022-12-05T05:13:13.908Z,98307.81
2022-12-05T05:16:02.029Z,98308.78
2022-12-05T05:18:51.533Z,98316.19
2022-12-05T05:21:42.539Z,98309.63
2022-12-05T05:24:30.178Z,98305.91
2022-12-05T05:27:18.256Z,98315.81
2022-12-05T05:30:07.745Z,98324.78
2022-12-05T05:32:55.694Z,98329.00
2022-12-05T05:35:43.529Z,98326.47
2022-12-05T05:38:32.905Z,98331.00
2022-12-05T05:41:23.434Z,98330.66
2022-12-05T05:44:11.273Z,98332.22
2022-12-05T05:46:59.459Z,98327.41
2022-12-05T05:49:47.302Z,98334.50
2022-12-05T05:52:35.861Z,98326.47
2022-12-05T05:55:25.071Z,98331.00
2022-12-05T05:58:13.040Z,98335.31
2022-12-05T06:01:05.845Z,98338.06
2022-12-05T06:03:54.272Z,98332.91
2022-12-05T06:06:42.543Z,98342.50
2022-12-05T06:09:30.356Z,98334.13
2022-12-05T06:12:19.972Z,98341.53
2022-12-05T06:15:09.346Z,98336.28
2022-12-05T06:18:01.175Z,98347.50
2022-12-05T06:20:59.936Z,98343.22
2022-12-05T06:23:48.124Z,98347.84
2022-12-05T06:26:36.108Z,98350.59
2022-12-05T06:29:32.388Z,98356.81
2022-12-05T06:32:22.007Z,98358.59
2022-12-05T06:35:15.690Z,98366.63
2022-12-05T06:38:03.801Z,98366.63
2022-12-05T06:40:54.238Z,98377.13
2022-12-05T06:43:42.145Z,98377.38
2022-12-05T06:46:31.779Z,98377.63
2022-12-05T06:49:19.970Z,98385.34
2022-12-05T06:52:07.715Z,98386.66
2022-12-05T06:54:55.790Z,98378.81
2022-12-05T06:57:43.911Z,98382.06
2022-12-05T07:00:49.396Z,98390.59
2022-12-05T07:03:43.962Z,98389.50
2022-12-05T07:06:31.849Z,98395.44
2022-12-05T07:09:21.253Z,98393.44
2022-12-05T07:12:09.471Z,98396.19
2022-12-05T07:14:57.334Z,98393.59
2022-12-05T07:17:45.344Z,98396.41
2022-12-05T07:21:03.530Z,98402.59
2022-12-05T07:23:44.396Z,98397.63
2022-12-05T07:26:32.165Z,98399.41
2022-12-05T07:29:20.289Z,98413.34
2022-12-05T07:32:08.637Z,98415.19
2022-12-05T07:34:56.366Z,98420.16
2022-12-05T07:37:45.725Z,98421.84
2022-12-05T07:40:33.956Z,98411.31
2022-12-05T07:43:21.994Z,98430.03
2022-12-05T07:46:12.503Z,98425.69
2022-12-05T07:49:00.537Z,98434.22
2022-12-05T07:51:48.276Z,98440.31
2022-12-05T07:54:37.588Z,98450.19
2022-12-05T07:57:25.514Z,98451.72
2022-12-05T08:00:16.234Z,98452.16
2022-12-05T08:03:04.589Z,98445.72
2022-12-05T08:05:52.848Z,98446.25
2022-12-05T08:08:41.430Z,98444.53
2022-12-05T08:11:38.260Z,98453.06
2022-12-05T08:14:26.548Z,98452.19
2022-12-05T08:17:14.643Z,98450.19
2022-12-05T08:20:02.994Z,98450.09
2022-12-05T08:22:54.364Z,98445.34
2022-12-05T08:25:42.279Z,98457.75
2022-12-05T08:28:32.171Z,98458.94
2022-12-05T08:31:24.251Z,98471.66
2022-12-05T08:34:14.316Z,98463.47
2022-12-05T08:37:02.207Z,98468.28
2022-12-05T08:39:50.555Z,98476.44
2022-12-05T08:42:38.261Z,98474.78
2022-12-05T08:45:27.839Z,98481.31
2022-12-05T08:48:15.909Z,98487.31
2022-12-05T08:51:08.470Z,98496.03
2022-12-05T08:53:57.412Z,98499.59
2022-12-05T08:56:45.665Z,98498.44
2022-12-05T08:59:33.607Z,98494.19
2022-12-05T09:02:22.832Z,98495.16
2022-12-05T09:05:27.135Z,98496.81
2022-12-05T09:08:16.743Z,98512.59
2022-12-05T09:11:07.922Z,98514.50
2022-12-05T09:13:58.110Z,98521.22
2022-12-05T09:16:47.890Z,98519.09
2022-12-05T09:19:36.920Z,98529.91
2022-12-05T09:22:24.829Z,98540.13
2022-12-05T09:25:12.773Z,98545.16
2022-12-05T09:28:01.277Z,98541.84
2022-12-05T09:30:58.375Z,98536.69
2022-12-05T09:33:47.259Z,98531.81
2022-12-05T09:36:37.004Z,98532.09
2022-12-05T09:39:25.583Z,98534.72
2022-12-05T09:42:39.559Z,98538.69
2022-12-05T09:45:32.297Z,98539.25
2022-12-05T09:48:23.920Z,98550.94
2022-12-05T09:51:13.348Z,98547.09
2022-12-05T09:54:04.210Z,98544.72
2022-12-05T09:56:53.389Z,98539.25
2022-12-05T09:59:41.517Z,98540.66
2022-12-05T10:02:42.774Z,98542.94
2022-12-05T10:05:41.240Z,98536.91
2022-12-05T10:08:34.884Z,98533.31
2022-12-05T10:11:33.013Z,98536.25
2022-12-05T10:14:32.400Z,98539.16
2022-12-05T10:17:28.088Z,98539.47
2022-12-05T10:20:21.483Z,98536.19
2022-12-05T10:23:34.612Z,98536.69
2022-12-05T10:26:31.419Z,98535.19
2022-12-05T10:29:28.217Z,98538.16
2022-12-05T10:32:19.843Z,98538.03
2022-12-05T10:35:18.833Z,98538.06
2022-12-05T10:38:11.904Z,98535.97
2022-12-05T10:41:05.045Z,98541.78
2022-12-05T10:43:55.605Z,98537.97
2022-12-05T10:50:13.862Z,98537.47
2022-12-05T10:53:05.296Z,98535.34
2022-12-05T10:59:04.271Z,98538.72
2022-12-05T11:01:55.151Z,98535.84
2022-12-05T11:04:46.405Z,98524.59
2022-12-05T11:07:37.477Z,98522.47
2022-12-05T11:10:31.954Z,98529.41
2022-12-05T11:16:34.090Z,98531.56
2022-12-05T11:19:28.446Z,98534.22
2022-12-05T11:22:23.329Z,98538.84
2022-12-05T11:25:26.474Z,98524.75
2022-12-05T11:28:41.724Z,98522.84
2022-12-05T11:31:33.156Z,98523.19
2022-12-05T11:34:25.931Z,98525.69
2022-12-05T11:37:21.847Z,98522.25
2022-12-05T11:40:18.123Z,98519.63
2022-12-05T11:43:28.517Z,98517.75
2022-12-05T11:46:28.428Z,98516.31
2022-12-05T11:49:45.675Z,98520.66
2022-12-05T11:52:48.029Z,98510.88
2022-12-05T11:55:42.366Z,98504.19
2022-12-05T11:58:53.627Z,98507.22
2022-12-05T12:01:55.716Z,98509.75
2022-12-05T12:04:55.310Z,98507.28
2022-12-05T12:08:02.450Z,98511.34
2022-12-05T12:10:57.447Z,98500.06
2022-12-05T12:13:59.971Z,98502.97
2022-12-05T12:16:59.370Z,98498.78
2022-12-05T12:20:12.780Z,98497.00
2022-12-05T12:23:06.854Z,98483.34
2022-12-05T12:26:07.731Z,98478.34
2022-12-05T12:29:08.163Z,98490.56
2022-12-05T12:32:11.014Z,98490.56
2022-12-05T12:35:37.635Z,98492.94
2022-12-05T12:38:51.326Z,98494.63
2022-12-05T12:41:56.430Z,98500.72
2022-12-05T12:45:21.089Z,98503.47
2022-12-05T12:48:29.181Z,98495.00
2022-12-05T12:51:19.709Z,98496.91
2022-12-05T12:55:02.138Z,98509.59
2022-12-05T12:57:59.123Z,98508.28
2022-12-05T13:01:00.600Z,98510.44
2022-12-05T13:03:53.341Z,98502.78
2022-12-05T13:06:51.661Z,98497.97
2022-12-05T13:09:50.299Z,98502.75
2022-12-05T13:12:42.146Z,98505.53
2022-12-05T13:15:37.243Z,98498.34
2022-12-05T13:18:26.828Z,98495.22
2022-12-05T13:21:15.263Z,98495.22
2022-12-05T13:24:05.249Z,98488.75
2022-12-05T13:26:58.591Z,98496.31
2022-12-05T13:29:50.942Z,98496.66
2022-12-05T13:32:42.515Z,98498.69
2022-12-05T13:35:51.357Z,98501.22
2022-12-05T13:38:59.247Z,98496.66
2022-12-05T13:42:07.528Z,98507.22
2022-12-05T13:45:06.835Z,98503.50
2022-12-05T13:48:04.911Z,98505.44
2022-12-05T13:50:57.584Z,98501.34
2022-12-05T13:53:49.308Z,98494.16
2022-12-05T13:56:52.946Z,98499.69
2022-12-05T14:00:05.171Z,98500.13
2022-12-05T14:02:55.384Z,98505.16
2022-12-05T14:05:48.925Z,98509.47
2022-12-05T14:08:54.182Z,98516.56
2022-12-05T14:12:02.961Z,98512.13
2022-12-05T14:15:06.006Z,98509.03
2022-12-05T14:18:00.930Z,98507.94
2022-12-05T14:21:02.456Z,98505.16
2022-12-05T14:24:03.300Z,98506.03
2022-12-05T14:27:07.604Z,98511.28
2022-12-05T14:30:04.141Z,98505.28
2022-12-05T14:32:55.294Z,98507.94
2022-12-05T14:35:46.262Z,98510.56
2022-12-05T14:38:36.617Z,98511.41
2022-12-05T14:41:31.787Z,98505.41
2022-12-05T14:44:21.364Z,98503.75
2022-12-05T14:47:18.900Z,98504.72
2022-12-05T14:50:35.092Z,98503.13
2022-12-05T14:53:38.748Z,98500.63
2022-12-05T14:56:28.320Z,98503.50
2022-12-05T14:59:26.591Z,98501.81
2022-12-05T15:02:23.195Z,98491.41
2022-12-05T15:05:23.266Z,98494.38
2022-12-05T15:08:16.904Z,98499.53
2022-12-05T15:11:05.287Z,98497.03
2022-12-05T15:13:54.110Z,98500.75
2022-12-05T15:17:28.145Z,98509.63
2022-12-05T15:20:40.297Z,98507.09
2022-12-05T15:23:48.044Z,98510.69
2022-12-05T15:26:48.954Z,98512.84
2022-12-05T15:29:38.077Z,98510.22
2022-12-05T15:32:28.800Z,98514.75
2022-12-05T15:35:17.721Z,98511.66
2022-12-05T15:38:15.220Z,98510.19
2022-12-05T15:41:07.031Z,98513.28
2022-12-05T15:43:58.031Z,98514.03
2022-12-05T15:46:46.090Z,98519.28
2022-12-05T15:49:33.941Z,98520.25
2022-12-05T15:52:31.859Z,98518.44
2022-12-05T15:55:25.619Z,98523.72
2022-12-05T15:58:21.487Z,98515.91
2022-12-05T16:01:15.747Z,98521.44
2022-12-05T16:04:09.795Z,98528.63
2022-12-05T16:07:00.631Z,98525.25
2022-12-05T16:09:49.003Z,98521.19
2022-12-05T16:12:41.052Z,98528.34
2022-12-05T16:15:30.403Z,98534.81
2022-12-05T16:18:28.017Z,98548.00
2022-12-05T16:21:37.446Z,98543.69
2022-12-05T16:24:31.252Z,98538.41
2022-12-05T16:27:24.553Z,98544.50
2022-12-05T16:30:20.234Z,98551.69
2022-12-05T16:33:16.451Z,98553.00
2022-12-05T16:36:10.337Z,98554.91
2022-12-05T16:39:03.550Z,98554.06
2022-12-05T16:41:52.407Z,98557.53
2022-12-05T16:45:03.448Z,98559.22
2022-12-05T16:47:56.436Z,98570.19
2022-12-05T16:50:46.070Z,98558.72
2022-12-05T16:53:34.846Z,98559.66
2022-12-05T16:56:25.847Z,98550.09
2022-12-05T16:59:25.098Z,98560.63
2022-12-05T17:02:16.687Z,98568.53
2022-12-05T17:05:07.913Z,98565.03
2022-12-05T17:07:57.430Z,98558.09
2022-12-05T17:11:28.341Z,98567.78
2022-12-05T17:14:20.060Z,98577.72
2022-12-05T17:17:14.345Z,98579.84
2022-12-05T17:20:02.342Z,98587.63
2022-12-05T17:22:50.664Z,98583.56
2022-12-05T17:25:43.032Z,98585.13
2022-12-05T17:28:31.123Z,98588.09
2022-12-05T17:31:22.838Z,98591.47
2022-12-05T17:34:19.519Z,98582.81
2022-12-05T17:37:07.267Z,98590.00
2022-12-05T17:39:55.428Z,98589.28
2022-12-05T17:42:44.778Z,98590.25
2022-12-05T17:45:33.428Z,98589.50
2022-12-05T17:48:23.338Z,98584.34
2022-12-05T17:51:14.331Z,98588.75
2022-12-05T17:54:02.540Z,98583.50
2022-12-05T17:56:50.309Z,98590.69
2022-12-05T17:59:39.597Z,98584.69
2022-12-05T18:02:27.680Z,98581.22
2022-12-05T18:05:17.004Z,98589.47
2022-12-05T18:08:05.043Z,98581.66
2022-12-05T18:10:53.427Z,98586.09
2022-12-05T18:13:41.247Z,98575.56
2022-12-05T18:16:30.602Z,98580.81
2022-12-05T18:19:18.563Z,98570.63
2022-12-05T18:22:07.237Z,98576.00
2022-12-05T18:24:55.492Z,98569.06
2022-12-05T18:27:43.618Z,98573.59
2022-12-05T18:30:31.783Z,98576.44
2022-12-05T18:33:21.141Z,98569.50
2022-12-05T18:36:11.413Z,98573.31
2022-12-05T18:38:59.649Z,98568.97
2022-12-05T18:41:47.651Z,98578.06
2022-12-05T18:44:35.915Z,98582.69
2022-12-05T18:47:26.975Z,98584.72
2022-12-05T18:50:17.605Z,98585.16
2022-12-05T18:53:06.032Z,98583.69
2022-12-05T18:56:23.733Z,98589.16
2022-12-05T18:59:03.974Z,98604.44
2022-12-05T19:01:55.834Z,98599.50
2022-12-05T19:04:44.554Z,98607.69
2022-12-05T19:07:34.284Z,98604.56
2022-12-05T19:10:22.683Z,98601.19
2022-12-05T19:13:17.559Z,98601.41
2022-12-05T19:16:06.949Z,98605.00
2022-12-05T19:19:02.650Z,98613.94
2022-12-05T19:21:50.640Z,98609.72
2022-12-05T19:24:40.129Z,98611.53
2022-12-05T19:27:27.937Z,98602.03
2022-12-05T19:30:16.264Z,98600.47
2022-12-05T19:33:04.199Z,98614.47
2022-12-05T19:35:52.329Z,98607.50
2022-12-05T19:38:41.814Z,98607.50
2022-12-05T19:41:32.316Z,98601.31
2022-12-05T19:44:20.187Z,98606.69
2022-12-05T19:47:08.009Z,98610.28
2022-12-05T19:49:59.147Z,98612.91
2022-12-05T19:52:47.376Z,98617.31
2022-12-05T19:55:35.546Z,98623.53
2022-12-05T19:58:26.485Z,98610.50
2022-12-05T20:01:21.146Z,98618.47
2022-12-05T20:04:10.791Z,98618.69
2022-12-05T20:06:58.599Z,98615.09
2022-12-05T20:09:46.888Z,98610.69
2022-12-05T20:12:34.798Z,98621.94
2022-12-05T20:15:24.256Z,98613.00
2022-12-05T20:18:14.750Z,98606.78
2022-12-05T20:21:04.025Z,98610.28
2022-12-05T20:23:55.011Z,98618.97
2022-12-05T20:26:45.939Z,98613.72
2022-12-05T20:29:34.015Z,98611.19
2022-12-05T20:32:23.483Z,98607.75
2022-12-05T20:35:11.814Z,98609.63
2022-12-05T20:37:59.746Z,98607.09
2022-12-05T20:40:47.861Z,98600.19
2022-12-05T20:43:36.740Z,98598.47
2022-12-05T20:46:25.392Z,98596.69
2022-12-05T20:49:15.692Z,98594.06
2022-12-05T20:52:05.966Z,98587.97
2022-12-05T20:54:53.794Z,98585.22
2022-12-05T20:57:42.112Z,98593.13
2022-12-05T21:00:30.455Z,98586.94
2022-12-05T21:03:18.602Z,98584.41
2022-12-05T21:06:11.906Z,98589.66
2022-12-05T21:09:00.816Z,98588.81
2022-12-05T21:11:48.576Z,98592.41
2022-12-05T21:14:36.963Z,98590.69
2022-12-05T21:17:24.984Z,98584.72
2022-12-05T21:20:13.636Z,98576.00
2022-12-05T21:23:02.999Z,98562.97
2022-12-05T21:25:54.078Z,98556.03
2022-12-05T21:28:48.654Z,98557.91
2022-12-05T21:31:38.584Z,98554.56
2022-12-05T21:34:26.671Z,98556.56
2022-12-05T21:37:14.745Z,98559.72
2022-12-05T21:40:07.264Z,98567.78
2022-12-05T21:42:57.660Z,98564.66
2022-12-05T21:45:50.246Z,98569.38
2022-12-05T21:48:40.725Z,98579.34
2022-12-05T21:51:28.876Z,98584.69
2022-12-05T21:54:17.126Z,98584.47
2022-12-05T21:57:06.625Z,98579.53
2022-12-05T21:59:54.706Z,98581.53
2022-12-05T22:02:42.862Z,98576.56
2022-12-05T22:05:30.889Z,98580.44
2022-12-05T22:08:19.044Z,98582.44
2022-12-05T22:11:08.311Z,98593.31
2022-12-05T22:13:57.756Z,98591.84
2022-12-05T22:16:45.691Z,98590.47
2022-12-05T22:19:33.734Z,98594.34
2022-12-05T22:22:21.671Z,98589.50
2022-12-05T22:25:10.564Z,98577.72
2022-12-05T22:27:58.498Z,98574.53
2022-12-05T22:30:50.140Z,98575.78
2022-12-05T22:33:39.224Z,98570.06
2022-12-05T22:36:29.752Z,98577.50
2022-12-05T22:39:17.450Z,98572.66
2022-12-05T22:42:05.543Z,98581.75
2022-12-05T22:44:53.417Z,98582.16
2022-12-05T22:47:42.810Z,98577.28
2022-12-05T22:50:30.647Z,98579.53
2022-12-05T22:53:20.840Z,98579.19
2022-12-05T22:56:10.909Z,98585.75
2022-12-05T22:59:00.824Z,98588.66
2022-12-05T23:01:48.621Z,98582.06
2022-12-05T23:04:38.047Z,98580.78
2022-12-05T23:07:25.835Z,98576.75
2022-12-05T23:10:14.374Z,98579.75
2022-12-05T23:13:02.770Z,98584.53
2022-12-05T23:15:50.894Z,98572.63
2022-12-05T23:18:47.582Z,98576.56
2022-12-05T23:21:38.673Z,98570.00
2022-12-05T23:24:26.824Z,98567.00
2022-12-05T23:27:18.660Z,98570.00
2022-12-05T23:30:08.028Z,98568.47
2022-12-05T23:32:56.128Z,98569.41
2022-12-05T23:35:44.178Z,98576.50
2022-12-05T23:38:34.448Z,98575.00
2022-12-05T23:41:23.531Z,98566.38
2022-12-05T23:44:11.216Z,98571.63
2022-12-05T23:46:59.219Z,98576.13
2022-12-05T23:49:47.607Z,98580.41
2022-12-05T23:52:38.291Z,98564.72
2022-12-05T23:55:27.642Z,98565.47
2022-12-05T23:58:15.687Z,98562.69
